createdAt,value
2022-10-14T00:00:10.470Z,5.25
2022-10-14T00:02:13.881Z,5.00
2022-10-14T00:04:16.195Z,4.55
2022-10-14T00:06:19.848Z,5.10
2022-10-14T00:08:22.186Z,3.92
2022-10-14T00:10:24.459Z,4.90
2022-10-14T00:12:26.697Z,4.70
2022-10-14T00:14:28.935Z,4.88
2022-10-14T00:16:33.731Z,5.93
2022-10-14T00:18:35.953Z,5.55
2022-10-14T00:20:38.361Z,5.15
2022-10-14T00:22:40.594Z,5.10
2022-10-14T00:24:42.852Z,4.20
2022-10-14T00:26:46.028Z,4.30
2022-10-14T00:28:48.690Z,4.43
2022-10-14T00:30:57.561Z,4.80
2022-10-14T00:32:59.805Z,5.00
2022-10-14T00:35:02.068Z,4.40
2022-10-14T00:37:05.414Z,4.13
2022-10-14T00:39:07.711Z,4.70
2022-10-14T00:41:12.348Z,4.53
2022-10-14T00:43:18.308Z,4.53
2022-10-14T00:45:22.780Z,4.72
2022-10-14T00:47:25.095Z,4.18
2022-10-14T00:49:29.833Z,5.53
2022-10-14T00:51:32.305Z,6.10
2022-10-14T00:53:34.978Z,4.75
2022-10-14T00:55:38.785Z,4.30
2022-10-14T00:57:41.752Z,5.13
2022-10-14T00:59:44.022Z,5.53
2022-10-14T01:01:46.311Z,4.53
2022-10-14T01:03:48.647Z,4.30
2022-10-14T01:06:04.428Z,5.07
2022-10-14T01:08:10.031Z,4.40
2022-10-14T01:10:31.198Z,4.72
2022-10-14T01:12:33.396Z,4.60
2022-10-14T01:14:40.336Z,4.57
2022-10-14T01:16:45.763Z,4.28
2022-10-14T01:19:01.250Z,4.82
2022-10-14T01:21:16.584Z,4.82
2022-10-14T01:23:18.784Z,4.45
2022-10-14T01:25:29.133Z,4.10
2022-10-14T01:27:43.239Z,4.75
2022-10-14T01:30:04.465Z,4.80
2022-10-14T01:32:09.144Z,4.75
2022-10-14T01:34:12.850Z,4.88
2022-10-14T01:36:18.756Z,4.60
2022-10-14T01:38:25.224Z,4.00
2022-10-14T01:40:30.414Z,4.72
2022-10-14T01:42:34.763Z,4.22
2022-10-14T01:44:39.701Z,4.63
2022-10-14T01:46:46.954Z,4.60
2022-10-14T01:48:51.935Z,4.47
2022-10-14T01:50:55.328Z,4.88
2022-10-14T01:53:00.886Z,5.05
2022-10-14T01:55:04.987Z,4.18
2022-10-14T01:57:09.710Z,4.93
2022-10-14T01:59:14.918Z,5.25
2022-10-14T02:01:17.233Z,4.30
2022-10-14T02:03:21.148Z,4.65
2022-10-14T02:05:36.061Z,4.07
2022-10-14T02:07:41.168Z,4.53
2022-10-14T02:09:43.403Z,4.85
2022-10-14T02:11:51.774Z,4.30
2022-10-14T02:14:12.232Z,4.60
2022-10-14T02:16:14.967Z,5.00
2022-10-14T02:18:30.214Z,4.63
2022-10-14T02:20:43.229Z,4.90
2022-10-14T02:22:49.023Z,3.97
2022-10-14T02:24:56.845Z,4.38
2022-10-14T02:27:01.104Z,3.95
2022-10-14T02:29:04.231Z,4.30
2022-10-14T02:31:09.206Z,4.40
2022-10-14T02:33:11.971Z,4.50
2022-10-14T02:35:16.788Z,3.85
2022-10-14T02:37:22.175Z,4.07
2022-10-14T02:39:30.148Z,4.95
2022-10-14T02:43:35.793Z,5.00
2022-10-14T02:45:42.522Z,4.50
2022-10-14T02:47:44.771Z,5.25
2022-10-14T02:49:49.362Z,4.95
2022-10-14T02:51:51.644Z,5.05
2022-10-14T02:53:53.881Z,5.15
2022-10-14T02:55:56.126Z,5.00
2022-10-14T02:57:58.495Z,4.90
2022-10-14T03:00:02.179Z,4.82
2022-10-14T03:02:05.111Z,4.20
2022-10-14T03:04:08.154Z,5.28
2022-10-14T03:06:11.359Z,4.55
2022-10-14T03:08:13.681Z,3.97
2022-10-14T03:10:16.166Z,4.32
2022-10-14T03:12:18.794Z,3.88
2022-10-14T03:14:21.333Z,4.78
2022-10-14T03:16:24.509Z,4.80
2022-10-14T03:18:27.965Z,4.70
2022-10-14T03:20:37.270Z,5.18
2022-10-14T03:22:43.381Z,4.30
2022-10-14T03:24:46.864Z,5.32
2022-10-14T03:27:02.544Z,4.68
2022-10-14T03:29:05.535Z,4.82
2022-10-14T03:31:25.760Z,4.78
2022-10-14T03:33:38.817Z,5.13
2022-10-14T03:35:47.941Z,4.35
2022-10-14T03:37:55.000Z,4.78
2022-10-14T03:40:03.129Z,4.68
2022-10-14T03:42:07.934Z,4.85
2022-10-14T03:44:17.089Z,4.95
2022-10-14T03:46:38.261Z,3.72
2022-10-14T03:48:41.060Z,3.85
2022-10-14T03:50:43.632Z,3.92
2022-10-14T03:52:47.458Z,4.20
2022-10-14T03:54:57.208Z,4.38
2022-10-14T03:56:59.785Z,4.05
2022-10-14T03:59:05.696Z,4.07
2022-10-14T04:01:08.135Z,4.30
2022-10-14T04:03:33.007Z,4.85
2022-10-14T04:05:36.088Z,4.63
2022-10-14T04:07:47.025Z,4.97
2022-10-14T04:09:49.359Z,4.90
2022-10-14T04:11:51.922Z,5.03
2022-10-14T04:14:14.770Z,4.25
2022-10-14T04:16:22.655Z,4.05
2022-10-14T04:18:42.567Z,4.25
2022-10-14T04:20:47.146Z,4.80
2022-10-14T04:22:51.060Z,4.15
2022-10-14T04:24:54.949Z,3.95
2022-10-14T04:26:57.290Z,4.20
2022-10-14T04:29:28.569Z,3.63
2022-10-14T04:31:37.845Z,4.07
2022-10-14T04:33:40.084Z,4.20
2022-10-14T04:35:50.420Z,4.32
2022-10-14T04:37:59.903Z,3.50
2022-10-14T04:40:05.648Z,4.20
2022-10-14T04:42:13.836Z,4.30
2022-10-14T04:44:17.478Z,4.78
2022-10-14T04:46:24.749Z,4.72
2022-10-14T04:48:27.329Z,3.85
2022-10-14T04:50:30.865Z,4.55
2022-10-14T04:52:51.845Z,4.50
2022-10-14T04:54:54.245Z,3.88
2022-10-14T04:57:09.992Z,4.55
2022-10-14T04:59:14.108Z,4.55
2022-10-14T05:01:45.529Z,4.07
2022-10-14T05:03:51.298Z,3.83
2022-10-14T05:05:54.579Z,3.83
2022-10-14T05:07:57.025Z,4.70
2022-10-14T05:12:14.697Z,3.95
2022-10-14T05:14:24.075Z,3.80
2022-10-14T05:16:37.979Z,3.75
2022-10-14T05:18:42.232Z,4.00
2022-10-14T05:20:46.386Z,3.80
2022-10-14T05:22:48.708Z,4.13
2022-10-14T05:24:51.481Z,3.70
2022-10-14T05:26:54.365Z,3.97
2022-10-14T05:28:57.151Z,4.13
2022-10-14T05:30:59.580Z,4.30
2022-10-14T05:33:02.180Z,4.47
2022-10-14T05:35:05.657Z,4.20
2022-10-14T05:37:12.606Z,4.38
2022-10-14T05:39:21.072Z,4.50
2022-10-14T05:41:23.646Z,3.97
2022-10-14T05:43:31.784Z,3.72
2022-10-14T05:45:35.117Z,4.53
2022-10-14T05:47:39.343Z,4.15
2022-10-14T05:49:48.697Z,4.10
2022-10-14T05:51:52.864Z,3.65
2022-10-14T05:53:58.239Z,3.80
2022-10-14T05:56:08.163Z,3.35
2022-10-14T05:58:13.094Z,3.70
2022-10-14T06:00:24.644Z,3.60
2022-10-14T06:02:31.489Z,3.50
2022-10-14T06:04:33.883Z,4.03
2022-10-14T06:06:38.893Z,4.07
2022-10-14T06:08:43.683Z,3.70
2022-10-14T06:10:45.955Z,3.45
2022-10-14T06:12:48.272Z,3.88
2022-10-14T06:14:50.875Z,3.88
2022-10-14T06:16:53.093Z,3.40
2022-10-14T06:18:55.352Z,3.40
2022-10-14T06:20:58.125Z,3.95
2022-10-14T06:23:00.713Z,3.47
2022-10-14T06:25:04.468Z,3.60
2022-10-14T06:27:07.015Z,2.92
2022-10-14T06:29:09.286Z,3.63
2022-10-14T06:31:11.622Z,3.22
2022-10-14T06:33:13.957Z,3.40
2022-10-14T06:35:16.215Z,3.42
2022-10-14T06:37:18.574Z,3.63
2022-10-14T06:39:20.836Z,3.10
2022-10-14T06:41:23.049Z,3.17
2022-10-14T06:43:25.680Z,3.40
2022-10-14T06:45:27.891Z,3.50
2022-10-14T06:47:30.113Z,3.20
2022-10-14T06:49:32.527Z,3.08
2022-10-14T06:51:34.779Z,3.30
2022-10-14T06:53:37.080Z,3.28
2022-10-14T06:55:39.443Z,2.75
2022-10-14T06:57:41.705Z,2.70
2022-10-14T06:59:44.571Z,2.97
2022-10-14T07:01:46.864Z,3.10
2022-10-14T07:03:52.840Z,2.80
2022-10-14T07:05:58.096Z,3.05
2022-10-14T07:10:03.703Z,2.92
2022-10-14T07:12:05.971Z,3.03
2022-10-14T07:14:08.247Z,3.28
2022-10-14T07:16:10.631Z,3.30
2022-10-14T07:18:12.987Z,3.35
2022-10-14T07:20:15.294Z,3.80
2022-10-14T07:22:17.684Z,3.90
2022-10-14T07:24:19.977Z,4.03
2022-10-14T07:26:22.245Z,3.15
2022-10-14T07:28:24.798Z,3.63
2022-10-14T07:30:27.225Z,3.65
2022-10-14T07:32:29.561Z,3.60
2022-10-14T07:34:33.675Z,3.20
2022-10-14T07:36:35.992Z,3.35
2022-10-14T07:38:38.308Z,3.50
2022-10-14T07:40:40.605Z,3.03
2022-10-14T07:42:42.945Z,2.60
2022-10-14T07:44:45.910Z,2.72
2022-10-14T07:46:48.162Z,3.10
2022-10-14T07:48:57.092Z,3.08
2022-10-14T07:51:00.015Z,3.10
2022-10-14T07:53:02.268Z,2.97
2022-10-14T07:55:05.246Z,2.78
2022-10-14T07:57:07.460Z,3.22
2022-10-14T07:59:09.712Z,3.25
2022-10-14T08:01:12.027Z,2.72
2022-10-14T08:03:15.030Z,2.90
2022-10-14T08:07:39.540Z,2.80
2022-10-14T08:09:41.802Z,2.80
2022-10-14T08:11:44.581Z,2.63
2022-10-14T08:13:47.242Z,2.60
2022-10-14T08:15:49.522Z,2.47
2022-10-14T08:17:51.943Z,2.60
2022-10-14T08:19:54.234Z,2.78
2022-10-14T08:21:56.721Z,2.58
2022-10-14T08:23:59.163Z,2.50
2022-10-14T08:26:01.376Z,2.47
2022-10-14T08:28:03.754Z,2.67
2022-10-14T08:30:10.202Z,2.15
2022-10-14T08:32:13.469Z,2.95
2022-10-14T08:34:15.810Z,2.70
2022-10-14T08:36:18.740Z,2.10
2022-10-14T08:38:25.229Z,2.20
2022-10-14T08:40:31.479Z,2.13
2022-10-14T08:42:58.654Z,2.10
2022-10-14T08:45:08.122Z,2.13
2022-10-14T08:47:14.174Z,2.13
2022-10-14T08:49:21.214Z,2.20
2022-10-14T08:51:23.664Z,2.08
2022-10-14T08:53:41.273Z,2.30
2022-10-14T08:55:43.618Z,2.20
2022-10-14T08:57:49.800Z,2.25
2022-10-14T08:59:52.405Z,2.30
2022-10-14T09:01:57.925Z,2.38
2022-10-14T09:04:05.416Z,2.40
2022-10-14T09:06:10.856Z,2.47
2022-10-14T09:08:15.476Z,2.53
2022-10-14T09:10:44.079Z,2.20
2022-10-14T09:12:46.507Z,2.55
2022-10-14T09:14:55.255Z,2.70
2022-10-14T09:17:00.740Z,2.38
2022-10-14T09:19:06.751Z,2.25
2022-10-14T09:21:34.062Z,2.47
2022-10-14T09:23:53.305Z,1.90
2022-10-14T09:26:15.464Z,2.15
2022-10-14T09:28:19.460Z,2.10
2022-10-14T09:30:21.883Z,2.10
2022-10-14T09:32:29.288Z,1.90
2022-10-14T09:34:39.395Z,2.42
2022-10-14T09:36:41.871Z,2.28
2022-10-14T09:38:44.936Z,2.35
2022-10-14T09:40:51.585Z,2.00
2022-10-14T09:42:59.675Z,2.30
2022-10-14T09:45:05.049Z,2.20
2022-10-14T09:47:12.932Z,2.05
2022-10-14T09:49:17.645Z,1.92
2022-10-14T09:51:25.286Z,2.13
2022-10-14T09:53:35.451Z,2.08
2022-10-14T09:55:38.255Z,2.00
2022-10-14T09:57:40.564Z,2.10
2022-10-14T09:59:55.185Z,2.30
2022-10-14T10:02:00.628Z,2.10
2022-10-14T10:04:22.798Z,1.80
2022-10-14T10:06:27.801Z,2.22
2022-10-14T10:08:30.125Z,1.85
2022-10-14T10:10:34.815Z,1.90
2022-10-14T10:12:41.677Z,1.58
2022-10-14T10:14:56.059Z,1.90
2022-10-14T10:17:11.140Z,1.83
2022-10-14T10:19:29.888Z,2.05
2022-10-14T10:21:32.190Z,1.95
2022-10-14T10:23:35.432Z,1.85
2022-10-14T10:25:37.712Z,2.25
2022-10-14T10:27:41.428Z,2.00
2022-10-14T10:29:43.707Z,1.90
2022-10-14T10:31:48.937Z,2.00
2022-10-14T10:34:07.668Z,1.92
2022-10-14T10:36:10.121Z,1.90
2022-10-14T10:38:15.620Z,1.70
2022-10-14T10:42:57.051Z,1.90
2022-10-14T10:45:05.446Z,1.67
2022-10-14T10:47:15.979Z,1.92
2022-10-14T10:49:38.518Z,1.40
2022-10-14T10:51:53.355Z,1.60
2022-10-14T10:54:04.874Z,1.60
2022-10-14T10:56:13.595Z,1.73
2022-10-14T10:58:19.062Z,2.42
2022-10-14T11:02:39.957Z,1.80
2022-10-14T11:04:45.321Z,1.60
2022-10-14T11:07:17.779Z,1.70
2022-10-14T11:09:43.655Z,1.98
2022-10-14T11:12:12.766Z,2.20
2022-10-14T11:14:20.225Z,1.60
2022-10-14T11:16:26.874Z,2.17
2022-10-14T11:18:45.142Z,1.63
2022-10-14T11:21:01.536Z,1.80
2022-10-14T11:23:04.732Z,1.60
2022-10-14T11:25:16.345Z,1.83
2022-10-14T11:27:24.057Z,1.63
2022-10-14T11:31:47.289Z,1.70
2022-10-14T11:34:09.538Z,2.10
2022-10-14T11:36:31.742Z,1.77
2022-10-14T11:38:54.798Z,2.13
2022-10-14T11:41:08.855Z,2.60
2022-10-14T11:43:17.203Z,2.00
2022-10-14T11:45:22.466Z,2.08
2022-10-14T11:47:33.307Z,2.08
2022-10-14T11:49:42.005Z,2.15
2022-10-14T11:51:53.382Z,1.60
2022-10-14T11:53:55.681Z,1.83
2022-10-14T11:56:15.454Z,1.40
2022-10-14T11:58:21.183Z,1.60
2022-10-14T12:00:24.585Z,1.60
2022-10-14T12:02:42.015Z,1.38
2022-10-14T12:04:47.365Z,1.63
2022-10-14T12:06:57.790Z,1.52
2022-10-14T12:09:20.960Z,1.63
2022-10-14T12:11:26.335Z,2.00
2022-10-14T12:13:33.125Z,1.65
2022-10-14T12:15:37.328Z,1.83
2022-10-14T12:17:48.670Z,1.88
2022-10-14T12:19:51.398Z,1.70
2022-10-14T12:21:56.570Z,1.55
2022-10-14T12:24:08.013Z,1.55
2022-10-14T12:26:25.173Z,1.75
2022-10-14T12:28:27.600Z,1.98
2022-10-14T12:30:34.665Z,1.52
2022-10-14T12:32:56.858Z,1.60
2022-10-14T12:35:01.686Z,1.40
2022-10-14T12:37:27.187Z,1.77
2022-10-14T12:39:34.497Z,1.42
2022-10-14T12:41:43.643Z,1.58
2022-10-14T12:43:58.985Z,1.80
2022-10-14T12:46:03.189Z,1.20
2022-10-14T12:48:08.205Z,1.35
2022-10-14T12:50:17.749Z,1.40
2022-10-14T12:52:26.519Z,1.77
2022-10-14T12:54:30.562Z,1.52
2022-10-14T12:56:38.813Z,1.38
2022-10-14T12:58:54.412Z,1.20
2022-10-14T13:00:58.771Z,1.50
2022-10-14T13:03:02.022Z,1.50
2022-10-14T13:05:22.834Z,1.33
2022-10-14T13:07:40.375Z,1.30
2022-10-14T13:12:06.205Z,1.20
2022-10-14T13:14:23.530Z,1.33
2022-10-14T13:16:25.775Z,1.30
2022-10-14T13:18:35.364Z,1.30
2022-10-14T13:20:37.639Z,1.33
2022-10-14T13:22:40.545Z,1.50
2022-10-14T13:24:42.826Z,1.25
2022-10-14T13:26:54.175Z,1.10
2022-10-14T13:28:56.835Z,1.35
2022-10-14T13:31:05.157Z,1.20
2022-10-14T13:33:23.527Z,1.30
2022-10-14T13:35:32.359Z,1.30
2022-10-14T13:37:41.951Z,1.40
2022-10-14T13:39:47.273Z,1.30
2022-10-14T13:41:50.012Z,1.50
2022-10-14T13:43:56.336Z,1.30
2022-10-14T13:45:58.593Z,1.27
2022-10-14T13:48:01.621Z,1.13
2022-10-14T13:50:05.451Z,1.20
2022-10-14T13:52:12.538Z,1.08
2022-10-14T13:54:15.429Z,1.30
2022-10-14T13:56:21.884Z,1.20
2022-10-14T13:58:25.513Z,1.30
2022-10-14T14:00:44.735Z,1.10
2022-10-14T14:02:53.345Z,1.30
2022-10-14T14:05:00.901Z,1.55
2022-10-14T14:07:35.141Z,1.30
2022-10-14T14:09:27.394Z,1.00
2022-10-14T14:11:31.310Z,1.35
2022-10-14T14:13:52.385Z,1.10
2022-10-14T14:15:58.400Z,1.20
2022-10-14T14:18:00.707Z,1.10
2022-10-14T14:20:03.238Z,1.00
2022-10-14T14:22:14.846Z,1.30
2022-10-14T14:24:23.109Z,1.50
2022-10-14T14:26:36.503Z,1.05
2022-10-14T14:28:40.148Z,1.00
2022-10-14T14:30:43.163Z,1.20
2022-10-14T14:32:45.443Z,1.20
2022-10-14T14:34:48.901Z,1.20
2022-10-14T14:36:55.494Z,1.20
2022-10-14T14:39:05.935Z,1.20
2022-10-14T14:41:17.509Z,1.05
2022-10-14T14:43:20.295Z,1.00
2022-10-14T14:45:25.599Z,1.20
2022-10-14T14:47:28.708Z,0.93
2022-10-14T14:49:32.402Z,1.20
2022-10-14T14:51:38.107Z,1.10
2022-10-14T14:53:40.577Z,0.80
2022-10-14T14:55:45.325Z,0.93
2022-10-14T14:57:55.735Z,1.10
2022-10-14T15:00:05.887Z,1.27
2022-10-14T15:02:15.851Z,1.00
2022-10-14T15:04:25.376Z,1.23
2022-10-14T15:06:27.683Z,1.25
2022-10-14T15:08:32.323Z,1.05
2022-10-14T15:10:34.716Z,1.10
2022-10-14T15:12:42.480Z,1.00
2022-10-14T15:14:52.314Z,1.10
2022-10-14T15:16:54.633Z,1.00
2022-10-14T15:19:27.022Z,1.00
2022-10-14T15:21:29.428Z,1.02
2022-10-14T15:23:56.047Z,0.90
2022-10-14T15:25:58.566Z,1.08
2022-10-14T15:28:01.934Z,1.10
2022-10-14T15:30:22.753Z,1.25
2022-10-14T15:32:27.094Z,1.10
2022-10-14T15:34:29.503Z,1.00
2022-10-14T15:36:32.867Z,1.02
2022-10-14T15:38:35.570Z,0.93
2022-10-14T15:40:37.848Z,1.00
2022-10-14T15:42:40.198Z,1.00
2022-10-14T15:44:43.570Z,0.75
2022-10-14T15:47:05.878Z,1.00
2022-10-14T15:49:28.870Z,1.00
2022-10-14T15:51:32.805Z,0.90
2022-10-14T15:53:35.613Z,0.90
2022-10-14T15:55:37.856Z,0.98
2022-10-14T15:57:40.868Z,1.00
2022-10-14T15:59:43.448Z,0.90
2022-10-14T16:01:46.330Z,1.13
2022-10-14T16:03:49.323Z,1.02
2022-10-14T16:05:52.301Z,0.95
2022-10-14T16:07:54.581Z,1.20
2022-10-14T16:09:56.974Z,0.98
2022-10-14T16:11:59.813Z,1.20
2022-10-14T16:14:02.025Z,0.90
2022-10-14T16:16:05.475Z,1.15
2022-10-14T16:18:07.723Z,0.90
2022-10-14T16:20:11.971Z,1.10
2022-10-14T16:22:14.894Z,1.00
2022-10-14T16:24:19.019Z,1.15
2022-10-14T16:26:22.458Z,1.00
2022-10-14T16:28:24.718Z,1.42
2022-10-14T16:30:27.941Z,1.23
2022-10-14T16:32:30.180Z,0.93
2022-10-14T16:34:32.894Z,1.27
2022-10-14T16:36:35.126Z,1.20
2022-10-14T16:38:38.400Z,1.52
2022-10-14T16:40:40.674Z,1.75
2022-10-14T16:42:42.988Z,1.30
2022-10-14T16:44:45.321Z,1.30
2022-10-14T16:47:06.380Z,1.17
2022-10-14T16:49:08.905Z,1.00
2022-10-14T16:51:11.165Z,1.00
2022-10-14T16:53:32.466Z,1.05
2022-10-14T16:55:34.730Z,1.13
2022-10-14T16:57:36.964Z,1.00
2022-10-14T16:59:39.465Z,1.42
2022-10-14T17:01:41.770Z,1.10
2022-10-14T17:03:47.420Z,1.08
2022-10-14T17:05:56.682Z,1.10
2022-10-14T17:07:59.030Z,1.08
2022-10-14T17:10:01.325Z,1.10
2022-10-14T17:12:07.982Z,1.42
2022-10-14T17:14:15.133Z,1.17
2022-10-14T17:16:17.406Z,1.08
2022-10-14T17:18:25.430Z,1.08
2022-10-14T17:20:28.653Z,1.38
2022-10-14T17:22:30.954Z,1.05
2022-10-14T17:24:33.178Z,0.93
2022-10-14T17:26:35.523Z,1.20
2022-10-14T17:28:37.920Z,1.10
2022-10-14T17:30:40.190Z,1.30
2022-10-14T17:32:42.485Z,1.05
2022-10-14T17:34:45.065Z,1.13
2022-10-14T17:36:47.400Z,1.38
2022-10-14T17:38:51.141Z,1.15
2022-10-14T17:40:53.714Z,1.25
2022-10-14T17:42:56.485Z,1.20
2022-10-14T17:45:01.045Z,1.40
2022-10-14T17:47:03.952Z,1.23
2022-10-14T17:49:09.982Z,1.02
2022-10-14T17:51:12.506Z,1.30
2022-10-14T17:53:15.146Z,1.02
2022-10-14T17:57:25.835Z,1.17
2022-10-14T17:59:28.199Z,1.45
2022-10-14T18:01:37.948Z,1.30
2022-10-14T18:03:53.945Z,1.50
2022-10-14T18:05:56.174Z,1.20
2022-10-14T18:07:58.544Z,1.35
2022-10-14T18:10:00.842Z,1.40
2022-10-14T18:12:08.625Z,1.70
2022-10-14T18:14:14.797Z,1.40
2022-10-14T18:16:17.253Z,1.40
2022-10-14T18:18:19.633Z,1.67
2022-10-14T18:20:22.131Z,1.20
2022-10-14T18:22:24.339Z,1.52
2022-10-14T18:24:26.594Z,1.70
2022-10-14T18:26:28.940Z,1.60
2022-10-14T18:28:33.775Z,1.27
2022-10-14T18:30:38.264Z,1.63
2022-10-14T18:32:40.515Z,1.38
2022-10-14T18:34:42.735Z,1.77
2022-10-14T18:36:45.071Z,1.60
2022-10-14T18:38:51.341Z,1.83
2022-10-14T18:41:01.012Z,1.85
2022-10-14T18:43:05.483Z,1.40
2022-10-14T18:45:07.913Z,1.60
2022-10-14T18:47:10.165Z,1.80
2022-10-14T18:49:12.710Z,1.90
2022-10-14T18:51:15.708Z,2.10
2022-10-14T18:53:17.989Z,1.52
2022-10-14T18:55:20.329Z,1.38
2022-10-14T18:57:22.598Z,1.52
2022-10-14T18:59:25.051Z,1.83
2022-10-14T19:01:28.040Z,1.75
2022-10-14T19:03:30.372Z,1.80
2022-10-14T19:05:36.034Z,2.20
2022-10-14T19:07:39.179Z,2.13
2022-10-14T19:09:41.412Z,1.80
2022-10-14T19:11:44.824Z,1.70
2022-10-14T19:13:48.036Z,2.20
2022-10-14T19:15:59.694Z,1.98
2022-10-14T19:18:02.764Z,2.00
2022-10-14T19:20:08.272Z,1.60
2022-10-14T19:22:11.781Z,1.77
2022-10-14T19:24:14.322Z,2.10
2022-10-14T19:26:18.418Z,2.50
2022-10-14T19:28:20.728Z,2.35
2022-10-14T19:30:23.106Z,2.22
2022-10-14T19:32:25.429Z,2.70
2022-10-14T19:34:27.727Z,2.20
2022-10-14T19:36:30.116Z,2.15
2022-10-14T19:38:32.653Z,2.30
2022-10-14T19:40:34.973Z,2.67
2022-10-14T19:42:37.236Z,2.10
2022-10-14T19:44:39.537Z,2.40
2022-10-14T19:46:42.314Z,2.42
2022-10-14T19:48:45.014Z,2.15
2022-10-14T19:50:47.276Z,2.10
2022-10-14T19:52:49.497Z,2.40
2022-10-14T19:54:51.802Z,2.10
2022-10-14T19:56:54.330Z,3.30
2022-10-14T19:58:57.500Z,2.42
2022-10-14T20:00:59.992Z,2.38
2022-10-14T20:03:02.342Z,2.45
2022-10-14T20:05:04.700Z,2.50
2022-10-14T20:07:06.948Z,2.30
2022-10-14T20:09:09.533Z,2.92
2022-10-14T20:11:12.756Z,2.63
2022-10-14T20:13:15.015Z,2.63
2022-10-14T20:15:17.354Z,2.65
2022-10-14T20:19:26.877Z,2.70
2022-10-14T20:21:30.956Z,2.78
2022-10-14T20:23:34.187Z,2.70
2022-10-14T20:25:36.392Z,2.28
2022-10-14T20:27:39.038Z,2.00
2022-10-14T20:29:41.316Z,2.60
2022-10-14T20:31:43.616Z,3.30
2022-10-14T20:33:45.895Z,2.58
2022-10-14T20:35:48.149Z,2.83
2022-10-14T20:37:50.457Z,2.40
2022-10-14T20:39:53.889Z,2.28
2022-10-14T20:41:56.239Z,2.25
2022-10-14T20:43:58.499Z,2.80
2022-10-14T20:46:00.962Z,2.63
2022-10-14T20:48:03.213Z,2.63
2022-10-14T20:50:05.739Z,2.05
2022-10-14T20:52:09.912Z,2.80
2022-10-14T20:54:12.355Z,2.47
2022-10-14T20:56:14.886Z,2.60
2022-10-14T20:58:18.454Z,2.75
2022-10-14T21:00:20.727Z,2.80
2022-10-14T21:02:23.244Z,2.90
2022-10-14T21:04:25.542Z,2.60
2022-10-14T21:06:27.823Z,2.72
2022-10-14T21:08:30.117Z,2.70
2022-10-14T21:10:32.419Z,2.58
2022-10-14T21:12:34.670Z,2.60
2022-10-14T21:14:36.923Z,2.72
2022-10-14T21:16:42.156Z,2.80
2022-10-14T21:18:55.297Z,2.42
2022-10-14T21:21:01.271Z,2.20
2022-10-14T21:23:03.582Z,2.42
2022-10-14T21:25:05.978Z,2.63
2022-10-14T21:27:08.536Z,2.40
2022-10-14T21:29:10.787Z,2.47
2022-10-14T21:31:16.090Z,2.47
2022-10-14T21:33:21.114Z,2.58
2022-10-14T21:35:23.491Z,2.45
2022-10-14T21:37:25.748Z,2.08
2022-10-14T21:39:28.147Z,1.95
2022-10-14T21:41:30.445Z,2.10
2022-10-14T21:43:33.474Z,2.30
2022-10-14T21:45:35.799Z,2.90
2022-10-14T21:47:38.062Z,2.30
2022-10-14T21:49:40.311Z,2.42
2022-10-14T21:51:42.669Z,2.60
2022-10-14T21:53:46.051Z,2.05
2022-10-14T21:55:52.791Z,2.55
2022-10-14T21:57:55.037Z,2.20
2022-10-14T21:59:57.443Z,2.40
2022-10-14T22:01:59.680Z,2.30
2022-10-14T22:04:06.287Z,2.28
2022-10-14T22:06:17.432Z,2.35
2022-10-14T22:08:23.791Z,1.58
2022-10-14T22:10:41.290Z,2.17
2022-10-14T22:12:43.493Z,1.92
2022-10-14T22:14:45.713Z,2.28
2022-10-14T22:16:48.606Z,2.20
2022-10-14T22:18:51.627Z,2.28
2022-10-14T22:21:00.679Z,1.85
2022-10-14T22:23:03.076Z,2.17
2022-10-14T22:25:05.593Z,2.13
2022-10-14T22:27:07.887Z,1.83
2022-10-14T22:29:16.896Z,1.90
2022-10-14T22:31:20.211Z,2.00
2022-10-14T22:33:22.454Z,2.10
2022-10-14T22:35:25.090Z,1.75
2022-10-14T22:37:27.306Z,2.15
2022-10-14T22:39:30.237Z,2.45
2022-10-14T22:41:35.529Z,2.00
2022-10-14T22:43:38.341Z,2.20
2022-10-14T22:45:40.557Z,2.00
2022-10-14T22:47:42.778Z,1.50
2022-10-14T22:49:45.066Z,1.80
2022-10-14T22:51:47.334Z,2.05
2022-10-14T22:53:49.557Z,1.80
2022-10-14T22:55:53.038Z,1.85
2022-10-14T22:57:55.241Z,1.70
2022-10-14T22:59:57.770Z,2.15
2022-10-14T23:02:00.030Z,1.80
2022-10-14T23:04:02.312Z,2.13
2022-10-14T23:06:06.228Z,1.70
2022-10-14T23:08:11.367Z,2.08
2022-10-14T23:10:13.797Z,2.00
2022-10-14T23:12:16.006Z,2.10
2022-10-14T23:14:18.313Z,1.98
2022-10-14T23:16:21.649Z,1.90
2022-10-14T23:18:24.231Z,1.70
2022-10-14T23:20:26.740Z,2.17
2022-10-14T23:22:29.014Z,1.65
2022-10-14T23:24:31.211Z,1.40
2022-10-14T23:26:37.403Z,1.58
2022-10-14T23:28:39.812Z,1.48
2022-10-14T23:30:42.159Z,1.63
2022-10-14T23:32:44.393Z,1.50
2022-10-14T23:34:46.617Z,1.90
2022-10-14T23:36:48.943Z,1.20
2022-10-14T23:38:52.531Z,1.60
2022-10-14T23:40:56.801Z,1.40
2022-10-14T23:43:01.640Z,1.50
2022-10-14T23:45:04.448Z,1.50
2022-10-14T23:47:06.735Z,1.67
2022-10-14T23:49:25.064Z,1.80
2022-10-14T23:51:28.397Z,1.52
2022-10-14T23:53:30.663Z,1.73
2022-10-14T23:55:32.905Z,1.98
2022-10-14T23:57:35.139Z,1.80
2022-10-14T23:59:37.366Z,1.40
